createdAt,value
2023-03-23T00:03:59.908Z,49.5
2023-03-23T00:09:18.200Z,49.8
2023-03-23T00:14:36.935Z,50.2
2023-03-23T00:19:55.288Z,50.3
2023-03-23T00:25:14.014Z,50.2
2023-03-23T00:30:32.471Z,49.6
2023-03-23T00:35:50.955Z,49.5
2023-03-23T00:41:09.029Z,50.1
2023-03-23T00:46:27.510Z,50.1
2023-03-23T00:51:45.888Z,50.3
2023-03-23T00:57:05.310Z,51.3
2023-03-23T01:02:23.589Z,50.8
2023-03-23T01:07:42.135Z,50.8
2023-03-23T01:13:00.268Z,51
2023-03-23T01:18:34.451Z,50.7
2023-03-23T01:23:53.053Z,51.2
2023-03-23T01:29:11.552Z,51.6
2023-03-23T01:34:29.547Z,51.3
2023-03-23T01:39:48.147Z,51.4
2023-03-23T01:45:06.566Z,50.6
2023-03-23T01:50:25.567Z,51.1
2023-03-23T01:55:44.232Z,51.4
2023-03-23T02:01:02.535Z,51.4
2023-03-23T02:06:21.041Z,51.2
2023-03-23T02:11:39.010Z,50.9
2023-03-23T02:16:57.305Z,50.6
2023-03-23T02:22:15.712Z,51.1
2023-03-23T02:27:34.504Z,50.6
2023-03-23T02:32:52.829Z,50.4
2023-03-23T02:38:11.355Z,51.4
2023-03-23T02:43:35.857Z,50.9
2023-03-23T02:48:54.812Z,51.4
2023-03-23T02:54:13.313Z,50.7
2023-03-23T02:59:31.660Z,51.4
2023-03-23T03:04:50.412Z,50.4
2023-03-23T03:10:17.749Z,51.4
2023-03-23T03:15:36.067Z,51
2023-03-23T03:20:54.851Z,50.5
2023-03-23T03:26:13.927Z,50.7
2023-03-23T03:31:32.408Z,51.4
2023-03-23T03:36:50.698Z,51.1
2023-03-23T03:42:09.231Z,51
2023-03-23T03:47:27.415Z,51.4
2023-03-23T03:52:45.831Z,51.5
2023-03-23T03:58:04.583Z,51.5
2023-03-23T04:03:22.805Z,51
2023-03-23T04:08:43.985Z,50.5
2023-03-23T04:14:02.048Z,50.4
2023-03-23T04:19:20.541Z,51.4
2023-03-23T04:24:57.942Z,51.1
2023-03-23T04:30:16.295Z,51.4
2023-03-23T04:35:35.222Z,51
2023-03-23T04:40:53.164Z,50.5
2023-03-23T04:46:11.103Z,51
2023-03-23T04:51:29.268Z,50.8
2023-03-23T04:56:47.902Z,50
2023-03-23T05:02:15.179Z,50.5
2023-03-23T05:07:33.401Z,50
2023-03-23T05:12:51.350Z,50.7
2023-03-23T05:18:09.661Z,50
2023-03-23T05:23:28.005Z,50.8
2023-03-23T05:28:46.136Z,50.7
2023-03-23T05:34:04.248Z,50
2023-03-23T05:39:22.783Z,49.8
2023-03-23T05:44:40.889Z,50.2
2023-03-23T05:49:59.017Z,45.2
2023-03-23T05:55:17.378Z,40.2
2023-03-23T06:00:35.680Z,45.8
2023-03-23T06:05:56.458Z,46.3
2023-03-23T06:11:14.959Z,46.2
2023-03-23T06:16:33.264Z,46.7
2023-03-23T06:21:51.616Z,47.7
2023-03-23T06:27:09.561Z,47.9
2023-03-23T06:32:27.900Z,47.7
2023-03-23T06:37:46.227Z,47.4
2023-03-23T06:43:04.784Z,47.5
2023-03-23T06:48:22.944Z,48.3
2023-03-23T06:53:41.251Z,47.7
2023-03-23T06:58:59.389Z,47.9
2023-03-23T07:04:17.737Z,47.7
2023-03-23T07:09:43.869Z,48.1
2023-03-23T07:15:02.022Z,48.7
2023-03-23T07:20:20.318Z,48.4
2023-03-23T07:25:38.874Z,48.5
2023-03-23T07:30:57.135Z,47.7
2023-03-23T07:36:18.480Z,48.5
2023-03-23T07:41:38.407Z,48.5
2023-03-23T07:46:56.756Z,47.9
2023-03-23T07:52:16.548Z,47.7
2023-03-23T07:57:35.570Z,48.4
2023-03-23T08:02:54.115Z,47.6
2023-03-23T08:08:12.423Z,48.3
2023-03-23T08:13:30.769Z,48.4
2023-03-23T08:18:49.116Z,48.2
2023-03-23T08:24:07.496Z,47.4
2023-03-23T08:29:26.224Z,47.1
2023-03-23T08:34:44.588Z,46.7
2023-03-23T08:40:03.011Z,46.7
2023-03-23T08:45:21.127Z,47
2023-03-23T08:50:40.271Z,47.2
2023-03-23T08:55:59.631Z,47.2
2023-03-23T09:01:17.754Z,46.8
2023-03-23T09:06:36.284Z,46.3
2023-03-23T09:11:54.420Z,47.1
2023-03-23T09:17:12.794Z,46.2
2023-03-23T09:22:31.131Z,46.2
2023-03-23T09:27:50.432Z,46.7
2023-03-23T09:33:08.737Z,46.2
2023-03-23T09:38:30.158Z,46.9
2023-03-23T09:43:48.278Z,46
2023-03-23T09:49:09.129Z,47
2023-03-23T09:54:27.096Z,46.1
2023-03-23T09:59:45.640Z,47
2023-03-23T10:05:03.740Z,46.3
2023-03-23T10:10:22.114Z,47.1
2023-03-23T10:15:41.504Z,47.1
2023-03-23T10:20:59.941Z,47
2023-03-23T10:31:49.367Z,47.2
2023-03-23T10:37:10.888Z,47
2023-03-23T10:42:30.829Z,46.6
2023-03-23T10:47:49.372Z,46.9
2023-03-23T10:53:07.521Z,46.5
2023-03-23T10:58:29.467Z,46
2023-03-23T11:03:47.873Z,46.7
2023-03-23T11:09:06.295Z,45.9
2023-03-23T11:14:24.213Z,46.1
2023-03-23T11:19:42.681Z,46.8
2023-03-23T11:25:00.720Z,46.1
2023-03-23T11:30:19.070Z,45.9
2023-03-23T11:35:37.552Z,46.1
2023-03-23T11:40:55.962Z,46.8
2023-03-23T11:46:14.087Z,46.1
2023-03-23T11:51:32.256Z,46.7
2023-03-23T11:56:50.799Z,46
2023-03-23T12:02:17.691Z,46.3
2023-03-23T12:07:35.873Z,45.9
2023-03-23T12:12:53.992Z,45.8
2023-03-23T12:18:12.613Z,46
2023-03-23T12:23:30.653Z,46.1
2023-03-23T12:28:48.999Z,45.8
2023-03-23T12:34:07.312Z,45.9
2023-03-23T12:39:25.536Z,46
2023-03-23T12:44:43.696Z,46.1
2023-03-23T12:50:01.845Z,46
2023-03-23T12:55:20.083Z,46.1
2023-03-23T13:00:38.584Z,46.9
2023-03-23T13:05:56.907Z,46.7
2023-03-23T13:11:15.166Z,46.9
2023-03-23T13:16:33.678Z,46
2023-03-23T13:21:54.104Z,46.2
2023-03-23T13:27:12.268Z,46
2023-03-23T13:32:30.545Z,46.1
2023-03-23T13:37:49.157Z,46.1
2023-03-23T13:43:07.645Z,46.1
2023-03-23T13:48:25.839Z,46
2023-03-23T13:53:44.181Z,46.9
2023-03-23T13:59:02.142Z,46.8
2023-03-23T14:04:20.050Z,46.8
2023-03-23T14:09:38.842Z,46.9
2023-03-23T14:14:56.971Z,46.6
2023-03-23T14:20:15.287Z,46.5
2023-03-23T14:25:34.052Z,46.6
2023-03-23T14:30:52.481Z,45.8
2023-03-23T14:36:10.777Z,45.9
2023-03-23T14:41:28.908Z,45.9
2023-03-23T14:46:47.449Z,46
2023-03-23T14:52:05.562Z,45.7
2023-03-23T14:57:23.479Z,46.5
2023-03-23T15:02:42.033Z,46.3
2023-03-23T15:08:00.499Z,45.8
2023-03-23T15:13:18.867Z,45.7
2023-03-23T15:18:37.247Z,45.6
2023-03-23T15:23:55.558Z,46.4
2023-03-23T15:29:13.898Z,47.1
2023-03-23T15:34:36.294Z,36.9
2023-03-23T15:39:54.492Z,34.6
2023-03-23T15:45:12.828Z,33.2
2023-03-23T15:50:31.405Z,33.9
2023-03-23T15:55:49.616Z,33.4
2023-03-23T16:01:08.211Z,33.8
2023-03-23T16:06:26.657Z,33.2
2023-03-23T16:11:44.885Z,34.2
2023-03-23T16:17:03.130Z,35.3
2023-03-23T16:22:21.501Z,37.3
2023-03-23T16:27:43.088Z,37.4
2023-03-23T16:33:01.919Z,39.1
2023-03-23T16:38:20.267Z,39.3
2023-03-23T16:43:39.130Z,40.1
2023-03-23T16:48:57.077Z,40.5
2023-03-23T16:54:15.399Z,40.5
2023-03-23T16:59:33.820Z,40.7
2023-03-23T17:04:52.201Z,40.4
2023-03-23T17:10:10.846Z,41.4
2023-03-23T17:15:13.659Z,41.6
2023-03-23T17:20:32.070Z,41.3
2023-03-23T17:25:50.370Z,41.5
2023-03-23T17:31:08.945Z,41.8
2023-03-23T17:36:27.191Z,42.4
2023-03-23T17:41:45.469Z,41.6
2023-03-23T17:47:04.004Z,42.4
2023-03-23T17:52:22.499Z,42.7
2023-03-23T17:57:44.777Z,42.8
2023-03-23T18:03:03.347Z,42.9
2023-03-23T18:08:21.479Z,43
2023-03-23T18:13:39.630Z,42.6
2023-03-23T18:18:57.879Z,42.8
2023-03-23T18:24:16.290Z,42.9
2023-03-23T18:29:34.949Z,43.5
2023-03-23T18:34:53.085Z,43
2023-03-23T18:40:11.493Z,43
2023-03-23T18:45:30.129Z,43
2023-03-23T18:50:48.098Z,43.3
2023-03-23T18:56:09.498Z,43.3
2023-03-23T19:01:27.684Z,41.3
2023-03-23T19:06:45.827Z,40.6
2023-03-23T19:12:04.360Z,42.6
2023-03-23T19:17:22.889Z,43.4
2023-03-23T19:22:41.215Z,39.6
2023-03-23T19:29:25.843Z,40.3
2023-03-23T19:34:51.285Z,41.2
2023-03-23T19:40:50.229Z,41.5
2023-03-23T19:46:08.880Z,42.8
2023-03-23T19:51:11.900Z,42.9
2023-03-23T19:56:30.765Z,43.3
2023-03-23T20:01:33.534Z,42.7
2023-03-23T20:06:37.735Z,43.5
2023-03-23T20:11:40.017Z,42.8
2023-03-23T20:17:01.412Z,43.6
2023-03-23T20:22:19.869Z,43.8
2023-03-23T20:27:38.841Z,43.7
2023-03-23T20:32:57.182Z,44
2023-03-23T20:38:15.426Z,44.3
2023-03-23T20:43:33.737Z,43.3
2023-03-23T20:48:52.085Z,43.3
2023-03-23T20:54:10.644Z,44.6
2023-03-23T20:59:28.588Z,39.8
2023-03-23T21:04:46.945Z,42.9
2023-03-23T21:10:05.349Z,43.1
2023-03-23T21:15:23.635Z,43.8
2023-03-23T21:20:48.005Z,43.6
2023-03-23T21:26:06.262Z,44.4
2023-03-23T21:31:08.758Z,44.4
2023-03-23T21:36:27.070Z,44.2
2023-03-23T21:41:45.439Z,44.5
2023-03-23T21:47:03.603Z,44.2
2023-03-23T21:52:21.834Z,44.4
2023-03-23T21:57:40.395Z,44.9
2023-03-23T22:02:58.835Z,44.5
2023-03-23T22:08:16.936Z,44.6
2023-03-23T22:13:35.153Z,44.8
2023-03-23T22:18:53.492Z,44.7
2023-03-23T22:24:11.627Z,45.3
2023-03-23T22:29:30.657Z,45.4
2023-03-23T22:34:48.957Z,44.8
2023-03-23T22:40:07.096Z,45
2023-03-23T22:45:25.720Z,45
2023-03-23T22:50:44.497Z,44.9
2023-03-23T22:56:03.030Z,45.6
2023-03-23T23:01:21.677Z,45.7
2023-03-23T23:06:39.922Z,45.9
2023-03-23T23:11:58.029Z,45.1
2023-03-23T23:17:16.386Z,45.6
2023-03-23T23:22:34.523Z,45.3
2023-03-23T23:27:52.840Z,45.5
2023-03-23T23:33:11.212Z,46.2
2023-03-23T23:38:29.695Z,46.3
2023-03-23T23:43:48.221Z,45.5
2023-03-23T23:49:07.123Z,46.3
2023-03-23T23:54:25.450Z,46.3
2023-03-23T23:59:43.808Z,46.1
